createdAt,value
2017-05-23T00:00:19.455Z,55.20
2017-05-23T00:02:47.738Z,55.40
2017-05-23T00:05:16.311Z,55.40
2017-05-23T00:07:44.595Z,55.30
2017-05-23T00:10:12.875Z,55.40
2017-05-23T00:12:41.474Z,55.50
2017-05-23T00:15:09.760Z,55.40
2017-05-23T00:17:38.143Z,55.20
2017-05-23T00:20:06.818Z,54.90
2017-05-23T00:22:35.106Z,54.90
2017-05-23T00:25:03.391Z,54.70
2017-05-23T00:27:32.012Z,54.90
2017-05-23T00:30:00.296Z,54.90
2017-05-23T00:32:28.599Z,55.00
2017-05-23T00:34:57.214Z,55.30
2017-05-23T00:37:25.539Z,55.40
2017-05-23T00:39:53.836Z,55.40
2017-05-23T00:42:22.964Z,55.60
2017-05-23T00:44:51.252Z,56.10
2017-05-23T00:47:19.547Z,55.90
2017-05-23T00:49:48.120Z,55.80
2017-05-23T00:52:16.429Z,55.90
2017-05-23T00:54:44.716Z,55.90
2017-05-23T00:57:13.304Z,56.40
2017-05-23T00:59:42.017Z,56.20
2017-05-23T01:02:10.310Z,56.20
2017-05-23T01:04:38.997Z,56.30
2017-05-23T01:07:07.292Z,56.30
2017-05-23T01:09:35.599Z,56.50
2017-05-23T01:12:04.288Z,56.60
2017-05-23T01:14:32.576Z,56.60
2017-05-23T01:17:00.887Z,56.60
2017-05-23T01:19:29.571Z,56.50
2017-05-23T01:21:57.851Z,56.40
2017-05-23T01:24:26.146Z,56.60
2017-05-23T01:26:54.778Z,57.00
2017-05-23T01:29:23.064Z,57.20
2017-05-23T01:31:51.375Z,57.90
2017-05-23T01:34:20.055Z,57.20
2017-05-23T01:36:48.351Z,56.70
2017-05-23T01:39:16.646Z,56.40
2017-05-23T01:41:45.348Z,56.30
2017-05-23T01:44:13.635Z,56.20
2017-05-23T01:46:41.920Z,56.20
2017-05-23T01:49:10.540Z,56.10
2017-05-23T01:51:38.828Z,56.20
2017-05-23T01:54:07.141Z,56.30
2017-05-23T01:56:35.831Z,56.30
2017-05-23T01:59:04.132Z,56.50
2017-05-23T02:01:32.424Z,56.40
2017-05-23T02:04:01.023Z,56.40
2017-05-23T02:06:29.321Z,56.60
2017-05-23T02:08:57.624Z,56.80
2017-05-23T02:11:26.241Z,57.00
2017-05-23T02:13:54.532Z,56.80
2017-05-23T02:16:22.836Z,57.00
2017-05-23T02:18:51.513Z,57.20
2017-05-23T02:21:19.796Z,57.50
2017-05-23T02:23:48.089Z,57.90
2017-05-23T02:26:16.803Z,58.00
2017-05-23T02:28:45.119Z,58.30
2017-05-23T02:31:13.415Z,58.50
2017-05-23T02:33:42.097Z,58.60
2017-05-23T02:36:10.388Z,58.80
2017-05-23T02:38:38.680Z,58.80
2017-05-23T02:41:07.390Z,58.90
2017-05-23T02:43:35.703Z,58.90
2017-05-23T02:46:04.009Z,59.20
2017-05-23T02:48:32.624Z,59.50
2017-05-23T02:51:00.917Z,59.40
2017-05-23T02:53:29.212Z,59.70
2017-05-23T02:55:57.897Z,59.80
2017-05-23T02:58:26.236Z,59.50
2017-05-23T03:00:54.548Z,59.40
2017-05-23T03:03:23.273Z,59.40
2017-05-23T03:05:51.640Z,59.50
2017-05-23T03:08:19.948Z,59.80
2017-05-23T03:10:48.567Z,60.00
2017-05-23T03:13:16.863Z,59.80
2017-05-23T03:15:45.148Z,59.70
2017-05-23T03:18:13.767Z,59.70
2017-05-23T03:20:42.078Z,59.50
2017-05-23T03:23:10.378Z,59.70
2017-05-23T03:25:38.972Z,59.80
2017-05-23T03:28:07.280Z,59.90
2017-05-23T03:30:35.589Z,60.00
2017-05-23T03:33:04.288Z,59.90
2017-05-23T03:35:32.686Z,60.00
2017-05-23T03:38:00.996Z,60.00
2017-05-23T03:40:29.596Z,60.20
2017-05-23T03:42:58.002Z,60.20
2017-05-23T03:45:26.316Z,59.80
2017-05-23T03:47:54.933Z,59.70
2017-05-23T03:50:23.235Z,59.70
2017-05-23T03:52:51.533Z,59.50
2017-05-23T03:55:20.156Z,59.50
2017-05-23T03:57:48.459Z,59.50
2017-05-23T04:00:16.751Z,59.50
2017-05-23T04:02:45.331Z,59.60
2017-05-23T04:05:13.652Z,59.80
2017-05-23T04:07:41.944Z,59.40
2017-05-23T04:10:10.616Z,59.20
2017-05-23T04:12:39.038Z,59.00
2017-05-23T04:15:07.348Z,58.90
2017-05-23T04:17:36.026Z,59.10
2017-05-23T04:20:04.332Z,61.50
2017-05-23T04:22:32.630Z,59.40
2017-05-23T04:25:01.292Z,59.20
2017-05-23T04:27:29.580Z,58.90
2017-05-23T04:29:57.895Z,62.60
2017-05-23T04:32:26.588Z,59.70
2017-05-23T04:34:54.924Z,58.70
2017-05-23T04:37:23.252Z,58.10
2017-05-23T04:39:51.968Z,58.00
2017-05-23T04:42:20.256Z,57.80
2017-05-23T04:44:48.545Z,57.80
2017-05-23T04:47:17.113Z,56.90
2017-05-23T04:49:45.417Z,57.20
2017-05-23T04:52:13.707Z,57.20
2017-05-23T04:54:43.612Z,56.90
2017-05-23T04:57:12.086Z,56.40
2017-05-23T04:59:40.380Z,56.20
2017-05-23T05:02:09.001Z,56.50
2017-05-23T05:04:37.305Z,56.40
2017-05-23T05:07:05.599Z,56.50
2017-05-23T05:09:34.302Z,56.10
2017-05-23T05:12:02.596Z,55.80
2017-05-23T05:14:30.897Z,55.80
2017-05-23T05:16:59.496Z,55.70
2017-05-23T05:19:27.793Z,55.50
2017-05-23T05:21:56.101Z,55.20
2017-05-23T05:24:24.720Z,54.70
2017-05-23T05:26:53.137Z,55.50
2017-05-23T05:29:21.440Z,54.90
2017-05-23T05:31:50.066Z,54.80
2017-05-23T05:34:18.354Z,54.20
2017-05-23T05:36:46.649Z,54.10
2017-05-23T05:39:15.361Z,54.10
2017-05-23T05:41:43.664Z,54.00
2017-05-23T05:44:11.952Z,53.60
2017-05-23T05:46:40.564Z,53.60
2017-05-23T05:49:08.868Z,53.30
2017-05-23T05:51:37.157Z,53.10
2017-05-23T05:54:05.846Z,53.00
2017-05-23T05:56:34.148Z,53.00
2017-05-23T05:59:02.449Z,52.50
2017-05-23T06:01:31.149Z,52.70
2017-05-23T06:03:59.449Z,52.10
2017-05-23T06:06:27.754Z,51.40
2017-05-23T06:08:56.442Z,51.20
2017-05-23T06:11:24.745Z,51.10
2017-05-23T06:14:14.164Z,51.10
2017-05-23T06:16:42.463Z,50.20
2017-05-23T06:19:10.788Z,49.80
2017-05-23T06:21:39.384Z,50.40
2017-05-23T06:24:07.663Z,49.90
2017-05-23T06:26:35.950Z,48.90
2017-05-23T06:29:04.633Z,48.90
2017-05-23T06:31:32.926Z,48.40
2017-05-23T06:34:01.220Z,48.80
2017-05-23T06:36:29.839Z,48.20
2017-05-23T06:38:58.137Z,47.50
2017-05-23T06:41:26.426Z,46.90
2017-05-23T06:43:55.030Z,47.20
2017-05-23T06:46:23.358Z,46.70
2017-05-23T06:48:51.670Z,46.30
2017-05-23T06:51:20.315Z,45.50
2017-05-23T06:53:48.600Z,44.60
2017-05-23T06:56:16.897Z,43.60
2017-05-23T06:58:45.492Z,42.70
2017-05-23T07:01:13.784Z,43.30
2017-05-23T07:03:42.077Z,42.40
2017-05-23T07:06:10.666Z,41.20
2017-05-23T07:08:38.956Z,41.00
2017-05-23T07:11:07.238Z,41.10
2017-05-23T07:13:35.878Z,40.80
2017-05-23T07:16:04.165Z,41.20
2017-05-23T07:18:32.507Z,41.00
2017-05-23T07:21:01.196Z,40.10
2017-05-23T07:23:29.812Z,39.80
2017-05-23T07:25:58.103Z,40.20
2017-05-23T07:28:26.772Z,38.50
2017-05-23T07:30:55.051Z,38.70
2017-05-23T07:33:23.400Z,39.30
2017-05-23T07:35:52.092Z,38.50
2017-05-23T07:38:20.384Z,36.80
2017-05-23T07:40:48.665Z,35.10
2017-05-23T07:43:17.370Z,36.30
2017-05-23T07:45:45.668Z,37.10
2017-05-23T07:48:13.960Z,36.00
2017-05-23T07:50:42.560Z,35.70
2017-05-23T07:53:10.860Z,34.80
2017-05-23T07:55:39.156Z,34.10
2017-05-23T07:58:07.744Z,33.70
2017-05-23T08:00:36.105Z,33.30
2017-05-23T08:03:04.391Z,34.10
2017-05-23T08:05:33.040Z,31.70
2017-05-23T08:08:01.325Z,31.70
2017-05-23T08:10:29.611Z,31.80
2017-05-23T08:12:58.199Z,32.20
2017-05-23T08:15:26.487Z,31.60
2017-05-23T08:17:54.792Z,32.60
2017-05-23T08:20:23.419Z,32.30
2017-05-23T08:22:51.695Z,32.20
2017-05-23T08:25:19.968Z,31.80
2017-05-23T08:27:48.621Z,30.50
2017-05-23T08:30:16.907Z,30.50
2017-05-23T08:32:45.184Z,29.90
2017-05-23T08:35:13.809Z,29.70
2017-05-23T08:37:42.100Z,29.60
2017-05-23T08:40:10.384Z,30.10
2017-05-23T08:42:39.012Z,29.30
2017-05-23T08:45:07.299Z,28.80
2017-05-23T08:47:35.591Z,30.00
2017-05-23T08:50:04.296Z,29.20
